createdAt,value
2018-09-28T00:01:36.022Z,0.78
2018-09-28T00:04:04.216Z,0.80
2018-09-28T00:06:32.405Z,0.72
2018-09-28T00:09:00.579Z,0.80
2018-09-28T00:11:28.851Z,0.70
2018-09-28T00:13:57.042Z,0.80
2018-09-28T00:16:25.302Z,0.70
2018-09-28T00:18:53.580Z,0.70
2018-09-28T00:21:21.837Z,0.80
2018-09-28T00:23:50.031Z,0.68
2018-09-28T00:26:18.315Z,0.70
2018-09-28T00:28:46.512Z,0.70
2018-09-28T00:31:14.693Z,0.60
2018-09-28T00:33:42.900Z,0.60
2018-09-28T00:36:11.233Z,0.65
2018-09-28T00:38:39.405Z,0.70
2018-09-28T00:41:07.642Z,0.80
2018-09-28T00:43:36.060Z,0.60
2018-09-28T00:46:04.241Z,0.70
2018-09-28T00:48:32.446Z,0.70
2018-09-28T00:51:00.618Z,0.70
2018-09-28T00:53:28.790Z,0.68
2018-09-28T00:55:57.102Z,0.70
2018-09-28T00:58:25.272Z,0.80
2018-09-28T01:00:53.792Z,0.53
2018-09-28T01:03:21.974Z,0.70
2018-09-28T01:05:50.212Z,0.70
2018-09-28T01:08:18.396Z,0.90
2018-09-28T01:10:46.823Z,0.60
2018-09-28T01:13:15.042Z,0.70
2018-09-28T01:15:43.319Z,0.75
2018-09-28T01:18:12.219Z,1.00
2018-09-28T01:20:40.473Z,0.70
2018-09-28T01:23:08.765Z,0.80
2018-09-28T01:25:37.147Z,1.00
2018-09-28T01:28:05.325Z,1.00
2018-09-28T01:30:33.502Z,0.70
2018-09-28T01:33:01.674Z,0.60
2018-09-28T01:35:30.272Z,0.90
2018-09-28T01:37:58.645Z,0.80
2018-09-28T01:40:26.905Z,1.02
2018-09-28T01:42:55.098Z,0.85
2018-09-28T01:45:23.464Z,0.90
2018-09-28T01:47:51.644Z,0.60
2018-09-28T01:50:19.850Z,0.70
2018-09-28T01:52:48.181Z,0.70
2018-09-28T01:55:16.358Z,0.82
2018-09-28T01:57:44.614Z,0.90
2018-09-28T02:00:12.956Z,0.80
2018-09-28T02:02:41.134Z,0.70
2018-09-28T02:05:09.348Z,0.90
2018-09-28T02:07:37.718Z,0.70
2018-09-28T02:10:06.330Z,0.78
2018-09-28T02:12:34.601Z,0.90
2018-09-28T02:15:02.816Z,1.00
2018-09-28T02:17:31.051Z,0.70
2018-09-28T02:19:59.206Z,0.70
2018-09-28T02:22:27.497Z,0.80
2018-09-28T02:24:55.676Z,0.70
2018-09-28T02:27:23.945Z,0.90
2018-09-28T02:29:52.212Z,0.70
2018-09-28T02:32:20.430Z,0.93
2018-09-28T02:34:48.920Z,1.05
2018-09-28T02:37:17.113Z,1.02
2018-09-28T02:39:45.300Z,0.70
2018-09-28T02:42:13.500Z,1.42
2018-09-28T02:44:41.722Z,1.10
2018-09-28T02:47:10.291Z,1.10
2018-09-28T02:49:38.481Z,0.82
2018-09-28T02:52:06.745Z,0.90
2018-09-28T02:54:34.981Z,0.78
2018-09-28T02:57:03.366Z,0.82
2018-09-28T02:59:31.539Z,1.25
2018-09-28T03:01:59.729Z,0.80
2018-09-28T03:04:28.000Z,0.80
2018-09-28T03:06:56.178Z,1.22
2018-09-28T03:09:24.443Z,0.82
2018-09-28T03:11:52.922Z,0.70
2018-09-28T03:14:21.188Z,1.00
2018-09-28T03:16:49.373Z,1.15
2018-09-28T03:19:17.533Z,0.80
2018-09-28T03:21:45.931Z,0.95
2018-09-28T03:24:14.083Z,0.78
2018-09-28T03:26:42.337Z,0.85
2018-09-28T03:29:10.611Z,0.80
2018-09-28T03:31:38.887Z,0.95
2018-09-28T03:34:07.218Z,0.78
2018-09-28T03:36:35.371Z,0.80
2018-09-28T03:39:05.202Z,0.70
2018-09-28T03:41:33.369Z,0.80
2018-09-28T03:44:01.527Z,0.88
2018-09-28T03:46:29.706Z,1.00
2018-09-28T03:48:57.853Z,0.72
2018-09-28T03:51:26.032Z,0.80
2018-09-28T03:53:54.204Z,0.80
2018-09-28T03:56:22.439Z,0.70
2018-09-28T03:58:50.595Z,0.70
2018-09-28T04:01:18.751Z,0.65
2018-09-28T04:03:46.896Z,0.70
2018-09-28T04:06:15.237Z,1.00
2018-09-28T04:08:43.443Z,0.70
2018-09-28T04:11:11.723Z,0.90
2018-09-28T04:13:39.904Z,0.93
2018-09-28T04:16:08.088Z,0.72
2018-09-28T04:18:36.277Z,1.07
2018-09-28T04:21:04.428Z,1.10
2018-09-28T04:23:32.692Z,0.70
2018-09-28T04:26:00.971Z,0.75
2018-09-28T04:28:29.243Z,0.82
2018-09-28T04:30:57.718Z,0.70
2018-09-28T04:33:25.871Z,1.10
2018-09-28T04:35:54.042Z,0.70
2018-09-28T04:38:22.340Z,0.85
2018-09-28T04:40:50.627Z,0.82
2018-09-28T04:43:18.904Z,0.70
2018-09-28T04:45:47.179Z,1.00
2018-09-28T04:48:16.001Z,0.90
2018-09-28T04:50:44.296Z,0.80
2018-09-28T04:53:12.459Z,0.90
2018-09-28T04:55:40.625Z,1.00
2018-09-28T04:58:08.875Z,0.80
2018-09-28T05:00:37.174Z,1.00
2018-09-28T05:03:05.343Z,0.80
2018-09-28T05:05:33.596Z,0.90
2018-09-28T05:08:01.897Z,0.93
2018-09-28T05:10:30.043Z,1.15
2018-09-28T05:12:58.252Z,0.90
2018-09-28T05:15:26.392Z,0.90
2018-09-28T05:17:54.543Z,1.00
2018-09-28T05:20:23.569Z,1.12
2018-09-28T05:22:51.765Z,0.88
2018-09-28T05:25:20.049Z,0.75
2018-09-28T05:27:48.288Z,0.80
2018-09-28T05:30:16.435Z,0.65
2018-09-28T05:32:45.031Z,0.70
2018-09-28T05:35:13.059Z,0.90
2018-09-28T05:37:41.734Z,1.02
2018-09-28T05:40:10.111Z,0.82
2018-09-28T05:42:38.555Z,0.70
2018-09-28T05:45:06.796Z,1.05
2018-09-28T05:47:35.112Z,1.02
2018-09-28T05:50:03.413Z,0.72
2018-09-28T05:52:31.623Z,1.10
2018-09-28T05:54:59.784Z,0.90
2018-09-28T05:57:28.223Z,0.80
2018-09-28T06:00:01.755Z,0.80
2018-09-28T06:02:35.547Z,0.80
2018-09-28T06:05:09.018Z,1.10
2018-09-28T06:07:37.339Z,1.07
2018-09-28T06:10:05.518Z,0.90
2018-09-28T06:12:33.666Z,0.80
2018-09-28T06:15:01.820Z,0.90
2018-09-28T06:17:29.981Z,0.70
2018-09-28T06:19:58.179Z,0.95
2018-09-28T06:22:26.340Z,0.70
2018-09-28T06:24:54.515Z,1.05
2018-09-28T06:27:22.663Z,0.70
2018-09-28T06:29:50.897Z,0.80
2018-09-28T06:32:19.032Z,1.05
2018-09-28T06:34:47.186Z,1.20
2018-09-28T06:37:15.715Z,0.60
2018-09-28T06:39:43.867Z,1.10
2018-09-28T06:42:12.138Z,1.00
2018-09-28T06:44:40.457Z,0.95
2018-09-28T06:47:08.691Z,0.90
2018-09-28T06:49:36.883Z,0.80
2018-09-28T06:52:05.264Z,0.82
2018-09-28T06:54:33.856Z,0.93
2018-09-28T06:57:02.231Z,0.90
2018-09-28T06:59:30.392Z,0.80
2018-09-28T07:01:59.364Z,0.80
2018-09-28T07:04:27.651Z,0.80
2018-09-28T07:06:55.925Z,0.88
2018-09-28T07:09:24.236Z,1.00
2018-09-28T07:11:52.720Z,1.12
2018-09-28T07:14:20.876Z,0.88
2018-09-28T07:16:49.515Z,0.80
2018-09-28T07:19:17.656Z,0.93
2018-09-28T07:21:45.848Z,0.88
2018-09-28T07:24:14.105Z,0.95
2018-09-28T07:26:42.239Z,0.90
2018-09-28T07:29:10.617Z,0.80
2018-09-28T07:31:38.915Z,0.80
2018-09-28T07:34:07.083Z,0.70
2018-09-28T07:36:35.451Z,0.90
2018-09-28T07:39:05.193Z,0.60
2018-09-28T07:41:33.560Z,0.80
2018-09-28T07:44:01.706Z,0.80
2018-09-28T07:46:29.854Z,0.82
2018-09-28T07:48:58.025Z,0.70
2018-09-28T07:51:26.236Z,0.80
2018-09-28T07:53:54.411Z,0.70
2018-09-28T07:56:22.571Z,0.80
2018-09-28T07:58:50.715Z,0.80
2018-09-28T08:01:18.907Z,0.70
2018-09-28T08:03:47.099Z,1.20
2018-09-28T08:06:15.375Z,1.20
2018-09-28T08:08:43.531Z,0.80
2018-09-28T08:11:12.211Z,0.72
2018-09-28T08:13:40.413Z,0.70
2018-09-28T08:16:08.582Z,0.78
2018-09-28T08:18:36.759Z,0.70
2018-09-28T08:21:05.042Z,0.70
2018-09-28T08:23:33.352Z,1.00
2018-09-28T08:26:01.600Z,1.00
2018-09-28T08:28:29.875Z,0.90
2018-09-28T08:30:58.048Z,0.70
2018-09-28T08:33:26.335Z,0.70
2018-09-28T08:35:54.829Z,0.85
2018-09-28T08:38:22.976Z,0.72
2018-09-28T08:40:51.128Z,0.78
2018-09-28T08:43:19.288Z,0.78
2018-09-28T08:45:47.463Z,0.95
2018-09-28T08:48:15.803Z,0.60
2018-09-28T08:50:43.968Z,0.82
2018-09-28T08:53:12.216Z,0.65
2018-09-28T08:55:40.479Z,0.82
2018-09-28T08:58:08.633Z,0.80
2018-09-28T09:00:36.800Z,1.00
2018-09-28T09:03:04.975Z,1.25
2018-09-28T09:05:33.600Z,0.88
2018-09-28T09:08:01.766Z,1.22
2018-09-28T09:10:29.915Z,1.02
2018-09-28T09:12:58.079Z,0.90
2018-09-28T09:15:26.287Z,0.88
2018-09-28T09:17:54.730Z,0.90
2018-09-28T09:20:22.884Z,1.10
2018-09-28T09:22:51.127Z,0.65
2018-09-28T09:25:19.287Z,0.90
2018-09-28T09:27:47.508Z,1.00
2018-09-28T09:30:15.705Z,0.90
2018-09-28T09:32:43.863Z,0.60
2018-09-28T09:35:12.012Z,1.02
2018-09-28T09:37:40.163Z,0.80
2018-09-28T09:40:08.327Z,0.70
2018-09-28T09:42:36.557Z,0.70
2018-09-28T09:45:04.732Z,0.80
2018-09-28T09:47:32.888Z,0.57
2018-09-28T09:50:01.047Z,0.72
2018-09-28T09:52:29.297Z,0.60
2018-09-28T09:54:57.451Z,0.72
2018-09-28T09:57:26.564Z,0.60
2018-09-28T09:59:54.771Z,1.00
2018-09-28T10:02:28.415Z,0.88
2018-09-28T10:04:56.571Z,0.93
2018-09-28T10:07:24.715Z,0.85
2018-09-28T10:09:52.874Z,0.50
2018-09-28T10:12:21.329Z,0.62
2018-09-28T10:14:49.769Z,0.70
2018-09-28T10:17:17.919Z,0.70
2018-09-28T10:19:46.317Z,0.68
2018-09-28T10:22:14.611Z,0.53
2018-09-28T10:24:42.759Z,0.68
2018-09-28T10:27:10.923Z,0.80
2018-09-28T10:29:39.115Z,0.70
2018-09-28T10:32:07.300Z,1.07
2018-09-28T10:34:35.464Z,0.70
2018-09-28T10:37:03.735Z,0.62
2018-09-28T10:39:31.957Z,0.70
2018-09-28T10:42:00.072Z,0.98
2018-09-28T10:44:28.220Z,0.70
2018-09-28T10:46:56.372Z,0.80
2018-09-28T10:49:25.072Z,0.65
2018-09-28T10:51:53.320Z,0.85
2018-09-28T10:54:21.408Z,1.05
2018-09-28T10:56:49.599Z,0.95
2018-09-28T10:59:17.791Z,0.70
2018-09-28T11:01:46.205Z,1.17
2018-09-28T11:04:14.426Z,0.60
2018-09-28T11:06:42.619Z,0.60
2018-09-28T11:09:11.861Z,0.80
2018-09-28T11:11:40.517Z,0.70
2018-09-28T11:14:08.839Z,0.60
2018-09-28T11:16:36.999Z,0.53
2018-09-28T11:19:05.189Z,0.65
2018-09-28T11:21:33.794Z,0.50
2018-09-28T11:24:01.987Z,0.60
2018-09-28T11:26:30.362Z,0.72
2018-09-28T11:28:58.488Z,0.60
2018-09-28T11:31:26.644Z,0.50
2018-09-28T11:33:54.843Z,0.53
2018-09-28T11:36:22.987Z,0.70
2018-09-28T11:38:51.147Z,0.80
2018-09-28T11:41:19.321Z,0.60
2018-09-28T11:43:47.491Z,0.50
2018-09-28T11:46:15.800Z,0.70
2018-09-28T11:48:44.195Z,0.60
2018-09-28T11:51:12.367Z,0.47
2018-09-28T11:53:40.522Z,0.60
2018-09-28T11:56:08.664Z,0.60
2018-09-28T11:58:37.168Z,0.60
2018-09-28T12:01:05.320Z,0.60
2018-09-28T12:03:33.555Z,0.70
2018-09-28T12:06:02.001Z,0.55
2018-09-28T12:08:30.167Z,0.40
2018-09-28T12:10:58.466Z,0.50
2018-09-28T12:13:26.655Z,0.60
2018-09-28T12:15:54.971Z,0.60
2018-09-28T12:18:23.371Z,0.50
2018-09-28T12:20:51.527Z,0.45
2018-09-28T12:23:19.747Z,0.62
2018-09-28T12:25:48.115Z,0.50
2018-09-28T12:28:16.263Z,0.80
2018-09-28T12:30:44.517Z,0.60
2018-09-28T12:33:12.687Z,0.70
2018-09-28T12:35:41.183Z,0.65
2018-09-28T12:38:09.292Z,0.60
2018-09-28T12:40:37.447Z,0.60
2018-09-28T12:43:05.642Z,0.60
2018-09-28T12:45:33.910Z,0.60
2018-09-28T12:48:02.497Z,0.50
2018-09-28T12:50:30.690Z,0.70
2018-09-28T12:52:58.829Z,0.60
2018-09-28T12:55:26.987Z,0.72
2018-09-28T12:57:55.267Z,0.85
2018-09-28T13:00:24.512Z,0.50
2018-09-28T13:02:52.809Z,0.60
2018-09-28T13:05:21.032Z,0.60
2018-09-28T13:07:49.207Z,0.55
2018-09-28T13:10:17.355Z,0.50
2018-09-28T13:12:45.785Z,0.50
2018-09-28T13:15:14.023Z,0.40
2018-09-28T13:24:27.807Z,0.50
2018-09-28T13:26:55.881Z,0.50
2018-09-28T13:29:24.140Z,0.60
2018-09-28T13:31:52.305Z,0.60
2018-09-28T13:34:20.463Z,0.50
2018-09-28T13:36:48.779Z,0.50
2018-09-28T13:39:16.822Z,0.70
2018-09-28T13:41:44.977Z,0.70
2018-09-28T13:44:13.188Z,0.60
2018-09-28T13:46:41.377Z,0.80
2018-09-28T13:49:09.516Z,1.98
2018-09-28T13:51:37.815Z,1.02
2018-09-28T13:54:06.094Z,0.70
2018-09-28T13:56:34.247Z,0.50
2018-09-28T13:59:02.432Z,0.50
2018-09-28T14:01:30.961Z,0.60
2018-09-28T14:03:59.195Z,0.60
2018-09-28T14:06:27.402Z,1.07
2018-09-28T14:08:55.524Z,0.80
2018-09-28T14:11:23.954Z,1.80
2018-09-28T14:13:52.119Z,0.60
2018-09-28T14:16:20.478Z,1.05
2018-09-28T14:18:48.707Z,0.80
2018-09-28T14:21:16.832Z,0.57
2018-09-28T14:23:45.535Z,0.60
2018-09-28T14:26:13.713Z,0.70
2018-09-28T14:28:41.854Z,0.50
2018-09-28T14:31:10.011Z,0.50
2018-09-28T14:33:38.351Z,0.95
2018-09-28T14:36:06.708Z,0.60
2018-09-28T14:38:35.064Z,0.65
2018-09-28T14:41:03.245Z,0.50
2018-09-28T14:43:31.396Z,0.65
2018-09-28T14:45:59.691Z,3.25
2018-09-28T14:48:28.640Z,0.50
2018-09-28T14:50:56.865Z,0.60
2018-09-28T14:53:25.023Z,0.70
2018-09-28T14:55:53.423Z,1.20
2018-09-28T14:58:21.616Z,1.10
2018-09-28T15:00:49.909Z,0.80
2018-09-28T15:03:18.077Z,0.95
2018-09-28T15:05:46.227Z,0.70
2018-09-28T15:08:14.518Z,0.90
2018-09-28T15:10:42.656Z,0.60
2018-09-28T15:13:11.267Z,0.80
2018-09-28T15:15:39.408Z,0.60
2018-09-28T15:18:07.725Z,0.80
2018-09-28T15:20:35.984Z,0.60
2018-09-28T15:23:04.151Z,0.85
2018-09-28T15:25:32.455Z,0.80
2018-09-28T15:28:00.641Z,0.78
2018-09-28T15:30:28.927Z,0.65
2018-09-28T15:32:57.212Z,0.75
2018-09-28T15:35:25.573Z,0.90
2018-09-28T15:37:54.048Z,0.82
2018-09-28T15:40:22.205Z,0.93
2018-09-28T15:42:50.457Z,1.00
2018-09-28T15:45:18.757Z,0.82
2018-09-28T15:47:47.089Z,1.27
2018-09-28T15:50:15.263Z,0.70
2018-09-28T15:52:43.432Z,1.05
2018-09-28T15:55:11.835Z,0.70
2018-09-28T15:57:40.115Z,0.98
2018-09-28T16:00:08.803Z,1.10
2018-09-28T16:02:37.107Z,1.20
2018-09-28T16:05:05.276Z,0.95
2018-09-28T16:07:34.170Z,1.17
2018-09-28T16:10:02.339Z,1.10
2018-09-28T16:12:30.491Z,0.90
2018-09-28T16:14:58.643Z,0.80
2018-09-28T16:17:26.943Z,0.78
2018-09-28T16:19:55.159Z,1.20
2018-09-28T16:22:23.492Z,0.90
2018-09-28T16:24:51.799Z,0.88
2018-09-28T16:27:20.101Z,0.90
2018-09-28T16:29:48.263Z,1.10
2018-09-28T16:32:16.621Z,1.57
2018-09-28T16:34:44.771Z,1.32
2018-09-28T16:37:12.919Z,1.50
2018-09-28T16:39:41.411Z,1.40
2018-09-28T16:42:09.565Z,1.45
2018-09-28T16:44:37.719Z,1.85
2018-09-28T16:47:06.339Z,1.80
2018-09-28T16:49:34.501Z,1.75
2018-09-28T16:52:02.720Z,1.52
2018-09-28T16:54:30.880Z,1.90
2018-09-28T16:56:59.264Z,3.58
2018-09-28T16:59:27.415Z,5.62
2018-09-28T17:01:55.568Z,6.10
2018-09-28T17:04:23.716Z,5.42
2018-09-28T17:06:51.879Z,5.62
2018-09-28T17:09:20.371Z,5.75
2018-09-28T17:11:48.446Z,4.03
2018-09-28T17:14:16.643Z,5.30
2018-09-28T17:16:44.808Z,2.77
2018-09-28T17:19:13.023Z,1.85
2018-09-28T17:21:42.663Z,2.10
2018-09-28T17:24:10.819Z,2.17
2018-09-28T17:26:38.992Z,2.60
2018-09-28T17:29:07.189Z,1.77
2018-09-28T17:31:35.333Z,1.80
2018-09-28T17:34:03.559Z,1.60
2018-09-28T17:36:31.735Z,1.60
2018-09-28T17:38:59.906Z,1.02
2018-09-28T17:41:28.450Z,1.40
2018-09-28T17:43:56.592Z,1.60
2018-09-28T17:46:25.038Z,1.47
2018-09-28T17:48:53.679Z,1.10
2018-09-28T17:51:21.844Z,1.32
2018-09-28T17:53:50.056Z,1.60
2018-09-28T17:56:18.181Z,1.30
2018-09-28T17:58:46.428Z,1.62
2018-09-28T18:01:14.703Z,1.90
2018-09-28T18:03:42.869Z,1.47
2018-09-28T18:06:11.011Z,2.22
2018-09-28T18:08:39.171Z,1.80
2018-09-28T18:11:07.784Z,1.50
2018-09-28T18:13:35.967Z,1.50
2018-09-28T18:16:04.227Z,1.75
2018-09-28T18:18:32.371Z,2.20
2018-09-28T18:21:00.519Z,2.27
2018-09-28T18:23:28.891Z,1.80
2018-09-28T18:25:57.103Z,1.85
2018-09-28T18:28:25.415Z,2.22
2018-09-28T18:30:53.794Z,1.65
2018-09-28T18:33:22.001Z,2.25
2018-09-28T18:35:50.272Z,1.75
2018-09-28T18:38:18.433Z,1.90
2018-09-28T18:40:46.594Z,1.85
2018-09-28T18:43:14.831Z,1.32
2018-09-28T18:45:43.159Z,1.80
2018-09-28T18:48:11.367Z,1.20
2018-09-28T18:50:39.523Z,1.95
2018-09-28T18:53:07.691Z,2.35
2018-09-28T18:55:36.144Z,2.27
2018-09-28T18:58:04.503Z,2.70
2018-09-28T19:00:32.771Z,2.42
2018-09-28T19:03:00.944Z,1.90
2018-09-28T19:05:29.128Z,2.27
2018-09-28T19:07:57.304Z,1.90
2018-09-28T19:10:25.686Z,2.65
2018-09-28T19:12:54.405Z,1.98
2018-09-28T19:15:22.548Z,2.50
2018-09-28T19:17:50.747Z,2.33
2018-09-28T19:20:18.888Z,2.02
2018-09-28T19:22:47.040Z,1.65
2018-09-28T19:25:15.215Z,1.82
2018-09-28T19:27:43.359Z,1.30
2018-09-28T19:30:11.558Z,1.35
2018-09-28T19:32:39.692Z,1.50
2018-09-28T19:35:08.119Z,1.47
2018-09-28T19:37:36.267Z,2.15
2018-09-28T19:40:04.455Z,1.67
2018-09-28T19:42:32.776Z,1.50
2018-09-28T19:45:00.932Z,1.37
2018-09-28T19:47:29.103Z,1.62
2018-09-28T19:49:57.275Z,1.62
2018-09-28T19:52:25.434Z,1.42
2018-09-28T19:54:53.585Z,1.30
2018-09-28T19:57:21.835Z,1.20
2018-09-28T19:59:50.027Z,1.17
2018-09-28T20:02:18.181Z,0.93
2018-09-28T20:04:46.350Z,1.15
2018-09-28T20:07:14.728Z,1.12
2018-09-28T20:09:43.075Z,1.35
2018-09-28T20:12:11.243Z,1.35
2018-09-28T20:14:39.403Z,1.10
2018-09-28T20:17:07.715Z,1.10
2018-09-28T20:19:36.106Z,1.05
2018-09-28T20:22:07.532Z,1.12
2018-09-28T20:24:35.675Z,0.93
2018-09-28T20:27:03.831Z,1.20
2018-09-28T20:29:31.986Z,1.20
2018-09-28T20:32:00.355Z,1.10
2018-09-28T20:34:28.717Z,1.00
2018-09-28T20:36:56.891Z,1.00
2018-09-28T20:39:25.035Z,0.90
2018-09-28T20:41:53.183Z,1.35
2018-09-28T20:44:21.387Z,1.50
2018-09-28T20:46:49.543Z,1.20
2018-09-28T20:49:17.703Z,0.98
2018-09-28T20:51:46.063Z,0.93
2018-09-28T20:54:14.306Z,1.10
2018-09-28T20:56:42.910Z,1.42
2018-09-28T20:59:11.060Z,0.90
2018-09-28T21:01:39.209Z,1.22
2018-09-28T21:04:07.407Z,1.00
2018-09-28T21:06:35.686Z,0.90
2018-09-28T21:09:04.983Z,0.90
2018-09-28T21:11:33.132Z,1.27
2018-09-28T21:14:01.663Z,0.90
2018-09-28T21:16:29.828Z,0.80
2018-09-28T21:18:57.979Z,0.95
2018-09-28T21:21:26.172Z,1.20
2018-09-28T21:23:54.324Z,1.15
2018-09-28T21:26:22.476Z,1.50
2018-09-28T21:28:50.634Z,1.05
2018-09-28T21:31:19.191Z,1.10
2018-09-28T21:33:47.379Z,1.10
2018-09-28T21:36:15.619Z,1.12
2018-09-28T21:38:43.888Z,1.25
2018-09-28T21:41:12.031Z,1.25
2018-09-28T21:43:40.208Z,1.10
2018-09-28T21:46:08.527Z,1.90
2018-09-28T21:48:36.832Z,1.10
2018-09-28T21:51:04.988Z,1.25
2018-09-28T21:53:33.155Z,0.90
2018-09-28T21:56:01.459Z,1.05
2018-09-28T21:58:29.692Z,1.10
2018-09-28T22:00:58.299Z,0.90
2018-09-28T22:03:26.647Z,1.07
2018-09-28T22:05:54.819Z,0.90
2018-09-28T22:08:23.535Z,0.95
2018-09-28T22:10:51.726Z,0.65
2018-09-28T22:13:20.177Z,1.00
2018-09-28T22:15:48.351Z,1.25
2018-09-28T22:18:16.511Z,0.78
2018-09-28T22:20:45.123Z,1.40
2018-09-28T22:23:13.276Z,1.00
2018-09-28T22:25:41.593Z,0.90
2018-09-28T22:28:09.739Z,0.90
2018-09-28T22:30:37.907Z,0.95
2018-09-28T22:33:06.543Z,1.10
2018-09-28T22:35:34.715Z,0.95
2018-09-28T22:38:03.340Z,1.22
2018-09-28T22:40:31.544Z,0.93
2018-09-28T22:42:59.699Z,1.27
2018-09-28T22:45:28.097Z,1.05
2018-09-28T22:47:56.252Z,1.22
2018-09-28T22:50:24.491Z,1.35
2018-09-28T22:52:52.651Z,0.85
2018-09-28T22:55:20.799Z,0.90
2018-09-28T22:57:49.016Z,0.95
2018-09-28T23:00:17.176Z,1.15
2018-09-28T23:02:45.396Z,1.17
2018-09-28T23:05:13.608Z,1.22
2018-09-28T23:07:41.748Z,0.78
2018-09-28T23:10:09.943Z,1.00
2018-09-28T23:12:38.099Z,0.80
2018-09-28T23:15:06.295Z,1.25
2018-09-28T23:17:34.532Z,1.12
2018-09-28T23:20:02.688Z,0.93
2018-09-28T23:22:31.012Z,1.10
2018-09-28T23:24:59.347Z,0.90
2018-09-28T23:27:27.495Z,1.05
2018-09-28T23:29:55.831Z,1.10
2018-09-28T23:32:23.987Z,1.00
2018-09-28T23:34:52.138Z,1.10
2018-09-28T23:37:20.296Z,0.98
2018-09-28T23:39:48.475Z,0.80
2018-09-28T23:42:16.679Z,1.40
2018-09-28T23:44:45.084Z,0.90
2018-09-28T23:47:13.472Z,0.80
2018-09-28T23:49:41.631Z,0.82
2018-09-28T23:52:09.993Z,1.10
2018-09-28T23:54:38.209Z,1.25
2018-09-28T23:57:06.635Z,1.00
2018-09-28T23:59:35.059Z,0.95
